Crystal Hill, VA (24539)

8:02 PM EDT on April 19, 2015 (GMT -0400)
Huber | | Change Station
CLOSE
Current Station
Personal Weather Station
Location: Halifax, VA
Elevation: 495 ft
Nearby Weather Stations

Elev 495 ft 36.83 °N, 78.92 °W | Updated 40 seconds ago

Rain
Rain
59.9 °F
Feels Like 59.9 °F
N
1.2
Wind Variable Wind from NNW
Gusts 8.0 mph

Today
High -- | Low -- °F
--% Chance of Precip.
Yesterday
High -- | Low -- °F
Precip. -- in
6:36 AM 7:53 PM
New Moon, 2% visible
Pressure 29.79 in
Visibility 8.0 miles
Clouds Overcast 400 ft
Dew Point 59 °F
Humidity 97%
Rainfall 0.42 in
Snow Depth Not available.
UV 0 out of 12
Pollen 3.00 out of 12
Air Quality Not available.
Flu Activity Local Activity
METAR KDAN 192353Z AUTO 09009KT 050V110 8SM OVC004 17/15 A2981 RMK AO2 RAE40 SLP086 P0007 60026 T01670150 10200 20161 58020

More Conditions Fewer Conditions

Pressure 29.79 in
Visibility 8.0 miles
Clouds Overcast 400 ft
Dew Point 59 °F
Humidity 97%
Rainfall 0.42 in
Snow Depth Not available.
UV 0 out of 12
Pollen 3.00 out of 12
Air Quality Not available.
Flu Activity Local Activity
METAR KDAN 192353Z AUTO 09009KT 050V110 8SM OVC004 17/15 A2981 RMK AO2 RAE40 SLP086 P0007 60026 T01670150 10200 20161 58020

More Conditions Fewer Conditions

10-Day Weather Forecast

Almanac

Astronomy

Apr. 19, 2015 Rise Set
Actual Time
Civil Twilight
Nautical Twilight
Astronomical Twilight
Moon
Length of Visible Light
Length of Day
Tomorrow will be .
, % of the Moon is Illuminated

Today's Extremes

State Highs State Lows

Community

WunderPhotos

Upload Photos

1,815,046 photos uploaded!

WunderBlogs® & News

Nearby

Air Quality

  Air Quality AQ Index Pollutant
Not available.

Snow Depth

Station Depth Elevation

Earthquake Activity

City Distance Mag. Time & Date
Minimum magnitude displayed is 2.5.

Coastal Water Temperatures

Place Temperature

Stations

Nearby Weather Stations

Station Location Temp. Windchill Dew Point Humidity Wind Precip. Elev Updated Type